Time;durP1;ratioP1;P1;durP2;ratioP2;P2;SDS_P1;SDS_P2;PMS_P1;PMS_P2;Temp;Humidity;BMP_temperature;BMP_pressure;BME280_temperature;BME280_humidity;BME280_pressure;Samples;Min_cycle;Max_cycle;Signal;HPM_P1;HPM_P2
2022/03/06 00:02:06;;;;;;;;;30.50;27.75;;;;;10.20;76.60;100360.50;146618;571;46012;-69
2022/03/06 00:04:58;;;;;;;;;35.75;32.00;;;;;10.25;76.19;100360.69;146621;627;46030;-69
2022/03/06 00:07:50;;;;;;;;;28.50;25.75;;;;;10.26;76.40;100350.44;146615;607;46016;-71
2022/03/06 00:10:42;;;;;;;;;37.25;30.50;;;;;10.27;76.95;100357.41;146617;751;46020;-72
2022/03/06 00:13:35;;;;;;;;;28.50;23.50;;;;;10.28;77.26;100360.88;146618;583;46012;-68
2022/03/06 00:16:27;;;;;;;;;25.25;23.50;;;;;10.23;77.04;100349.37;146619;579;46020;-69
2022/03/06 00:19:19;;;;;;;;;28.00;26.00;;;;;10.23;76.58;100352.87;146619;592;45021;-68
2022/03/06 00:22:11;;;;;;;;;31.50;29.00;;;;;10.24;76.63;100344.25;146621;570;46010;-68
2022/03/06 00:25:03;;;;;;;;;35.00;31.75;;;;;10.25;76.58;100338.28;146617;566;46022;-68
2022/03/06 00:27:55;;;;;;;;;30.00;28.25;;;;;10.26;76.41;100342.69;146620;586;46020;-70
2022/03/06 00:30:48;;;;;;;;;36.25;31.25;;;;;10.28;76.93;100342.72;146614;569;46012;-71
2022/03/06 00:33:40;;;;;;;;;33.75;26.75;;;;;10.26;76.95;100341.75;146618;564;46021;-69
2022/03/06 00:36:32;;;;;;;;;38.75;31.75;;;;;10.27;76.66;100333.19;146614;579;46016;-69
2022/03/06 00:39:24;;;;;;;;;41.25;34.50;;;;;10.28;76.42;100338.47;146619;598;46020;-70
2022/03/06 00:42:17;;;;;;;;;43.50;33.50;;;;;10.30;76.42;100344.56;146619;705;46013;-70
2022/03/06 00:45:09;;;;;;;;;40.00;34.00;;;;;10.34;76.85;100335.25;146622;593;46010;-69
2022/03/06 00:48:01;;;;;;;;;45.00;38.00;;;;;10.37;76.60;100330.19;146616;577;46017;-74
2022/03/06 00:50:53;;;;;;;;;55.50;42.75;;;;;10.40;76.92;100325.16;146617;610;47020;-74
2022/03/06 00:53:49;;;;;;;;;52.25;41.00;;;;;10.44;76.82;100329.69;146617;588;46036;-74
2022/03/06 00:56:40;;;;;;;;;53.50;42.50;;;;;10.47;76.71;100334.12;146616;617;46021;-71
2022/03/06 00:59:35;;;;;;;;;51.00;40.50;;;;;10.49;77.01;100335.94;146616;712;46016;-72
2022/03/06 01:02:27;;;;;;;;;44.75;36.50;;;;;10.50;76.77;100331.63;146621;574;47014;-72
2022/03/06 01:05:20;;;;;;;;;40.50;34.25;;;;;10.50;77.31;100335.13;146619;593;45017;-69
2022/03/06 01:08:13;;;;;;;;;32.25;28.50;;;;;10.47;77.13;100335.00;146620;614;47010;-68
2022/03/06 01:11:05;;;;;;;;;20.00;18.00;;;;;10.46;76.97;100322.84;146614;581;46916;-68
2022/03/06 01:14:33;;;;;;;;;40.25;33.00;;;;;10.46;80.03;100319.38;146709;569;46022;-68
2022/03/06 01:19:27;;;;;;;;;34.25;28.50;;;;;10.45;80.22;100317.59;146710;580;45023;-67
2022/03/06 01:22:20;;;;;;;;;29.00;25.25;;;;;10.45;77.48;100312.41;146617;572;46016;-68
2022/03/06 01:25:12;;;;;;;;;27.75;24.25;;;;;10.47;77.17;100310.78;146622;617;45020;-71
2022/03/06 01:30:22;;;;;;;;;20.00;17.25;;;;;10.47;80.29;100311.69;146701;569;46022;-69
2022/03/06 01:33:14;;;;;;;;;14.75;12.25;;;;;10.47;78.26;100306.50;146610;566;46016;-69
2022/03/06 01:36:05;;;;;;;;;12.00;12.00;;;;;10.45;76.95;100297.75;146614;569;46011;-71
2022/03/06 01:38:57;;;;;;;;;17.50;16.00;;;;;10.46;77.42;100302.09;146607;609;46016;-72
2022/03/06 01:43:00;;;;;;;;;20.25;17.75;;;;;10.45;80.54;100292.56;146709;564;46013;-69
2022/03/06 01:45:53;;;;;;;;;17.00;17.00;;;;;10.45;77.97;100287.38;146619;569;46012;-70
2022/03/06 01:48:45;;;;;;;;;19.25;16.25;;;;;10.47;77.14;100288.34;146621;588;46020;-68
2022/03/06 01:51:37;;;;;;;;;15.50;15.00;;;;;10.49;77.18;100289.28;146611;617;48014;-68
2022/03/06 01:54:29;;;;;;;;;32.50;29.25;;;;;10.49;76.89;100288.41;146619;602;46010;-67
2022/03/06 01:57:21;;;;;;;;;31.00;28.25;;;;;10.45;76.56;100282.19;146612;618;46025;-67
2022/03/06 02:00:18;;;;;;;;;40.50;32.50;;;;;10.47;77.05;100283.16;146622;601;46010;-70
2022/03/06 02:03:11;;;;;;;;;24.75;21.25;;;;;10.47;77.32;100283.16;146613;639;46033;-71
2022/03/06 02:06:05;;;;;;;;;30.25;25.25;;;;;10.43;76.96;100281.22;146620;563;46010;-70
2022/03/06 02:08:57;;;;;;;;;18.25;18.25;;;;;10.43;77.58;100282.94;146616;591;45915;-72
2022/03/06 02:12:21;;;;;;;;;15.50;15.00;;;;;10.42;77.16;100283.78;146622;567;46021;-72
2022/03/06 02:15:04;;;;;;;;;17.00;14.00;;;;;10.44;77.03;100284.72;146610;580;47913;-72
2022/03/06 02:17:56;;;;;;;;;18.75;14.75;;;;;10.41;76.89;100282.88;146619;605;47010;-71
2022/03/06 02:20:48;;;;;;;;;13.25;11.50;;;;;10.44;77.07;100287.31;146611;603;46012;-73
2022/03/06 02:23:42;;;;;;;;;14.00;12.00;;;;;10.42;77.15;100287.25;146615;580;46020;-70
2022/03/06 02:26:33;;;;;;;;;11.50;11.00;;;;;10.45;76.90;100296.88;146613;644;46915;-71
2022/03/06 02:29:25;;;;;;;;;15.75;12.25;;;;;10.43;77.07;100296.78;146617;615;47010;-69
2022/03/06 02:32:21;;;;;;;;;12.00;11.00;;;;;10.45;76.79;100294.28;146610;595;46016;-70
2022/03/06 02:36:09;;;;;;;;;15.25;14.25;;;;;10.44;79.96;100295.97;146710;569;46023;-69
2022/03/06 02:39:01;;;;;;;;;18.50;16.50;;;;;10.43;77.86;100290.72;146617;595;46012;-68
2022/03/06 02:41:53;;;;;;;;;18.75;18.25;;;;;10.42;77.35;100289.84;146622;634;45021;-68
2022/03/06 02:44:45;;;;;;;;;39.00;32.00;;;;;10.43;77.50;100293.31;146617;575;47012;-72
2022/03/06 02:47:37;;;;;;;;;28.00;24.25;;;;;10.39;77.45;100295.75;146622;614;46020;-71
2022/03/06 02:50:33;;;;;;;;;23.25;19.50;;;;;10.39;77.42;100293.16;146617;618;46016;-69
2022/03/06 02:53:24;;;;;;;;;16.50;15.00;;;;;10.39;77.38;100293.16;146621;578;47010;-68
2022/03/06 02:56:17;;;;;;;;;9.50;8.50;;;;;10.39;78.26;100284.50;146617;580;46016;-68
2022/03/06 02:59:09;;;;;;;;;9.50;9.50;;;;;10.36;77.46;100292.16;146629;653;46021;-70
2022/03/06 03:02:01;;;;;;;;;9.00;8.00;;;;;10.37;77.25;100299.09;146623;616;46016;-73
2022/03/06 03:04:54;;;;;;;;;11.00;11.00;;;;;10.37;77.02;100294.81;146630;608;46021;-73
2022/03/06 03:07:49;;;;;;;;;18.25;16.00;;;;;10.38;77.13;100301.78;146619;584;46016;-72
2022/03/06 03:10:41;;;;;;;;;25.50;21.00;;;;;10.38;76.78;100295.72;146619;596;46014;-72
2022/03/06 03:13:33;;;;;;;;;18.25;15.00;;;;;10.41;76.94;100295.84;146618;565;46917;-74
2022/03/06 03:16:25;;;;;;;;;19.50;18.00;;;;;10.43;76.56;100301.09;146622;583;46020;-71
2022/03/06 03:19:18;;;;;;;;;19.75;16.00;;;;;10.44;76.73;100298.56;146617;583;46016;-66
2022/03/06 03:22:10;;;;;;;;;17.50;17.25;;;;;10.46;76.57;100303.81;146620;597;46020;-71
2022/03/06 03:25:02;;;;;;;;;29.00;26.75;;;;;10.46;76.82;100303.81;146618;646;46016;-71
2022/03/06 03:27:54;;;;;;;;;12.00;11.00;;;;;10.48;77.18;100307.38;146623;660;46021;-70
2022/03/06 03:30:47;;;;;;;;;14.25;12.00;;;;;10.47;77.14;100305.59;146618;569;46014;-71
2022/03/06 03:33:39;;;;;;;;;11.00;10.50;;;;;10.43;76.82;100308.84;146621;566;46020;-70
2022/03/06 03:36:31;;;;;;;;;11.75;11.25;;;;;10.40;77.40;100310.50;146618;613;46012;-71
2022/03/06 03:39:23;;;;;;;;;11.50;10.00;;;;;10.36;77.12;100299.91;146620;598;46020;-71
2022/03/06 03:42:16;;;;;;;;;12.25;11.50;;;;;10.30;77.75;100308.31;146616;631;46014;-70
2022/03/06 03:45:09;;;;;;;;;12.00;11.00;;;;;10.26;77.38;100302.88;146618;593;46020;-70
2022/03/06 03:48:02;;;;;;;;;9.50;9.50;;;;;10.23;77.54;100305.34;146618;653;46012;-72
2022/03/06 03:50:54;;;;;;;;;15.50;13.00;;;;;10.25;77.12;100309.78;146625;613;46010;-74
2022/03/06 03:53:46;;;;;;;;;12.25;12.25;;;;;10.23;77.15;100314.00;146614;612;46016;-71
2022/03/06 03:56:38;;;;;;;;;20.75;16.25;;;;;10.23;77.15;100307.94;146616;580;46010;-71
2022/03/06 03:59:30;;;;;;;;;26.25;24.00;;;;;10.24;76.66;100309.69;146612;633;46016;-71
2022/03/06 04:02:23;;;;;;;;;19.25;16.25;;;;;10.23;76.96;100307.94;146615;575;46020;-71
2022/03/06 04:05:15;;;;;;;;;22.25;21.00;;;;;10.26;76.91;100310.66;146616;612;46016;-71
2022/03/06 04:08:08;;;;;;;;;16.50;14.75;;;;;10.27;77.06;100318.53;146614;565;46020;-72
2022/03/06 04:11:00;;;;;;;;;13.50;13.50;;;;;10.28;77.33;100316.81;146617;586;46012;-69
2022/03/06 04:13:51;;;;;;;;;17.00;16.00;;;;;10.27;77.14;100305.56;146616;692;46010;-69
2022/03/06 04:16:43;;;;;;;;;17.50;13.50;;;;;10.28;77.30;100304.78;146609;649;47916;-69
2022/03/06 04:19:35;;;;;;;;;16.75;15.00;;;;;10.30;77.43;100310.00;146617;614;46021;-71
2022/03/06 04:22:27;;;;;;;;;22.00;20.50;;;;;10.29;77.47;100288.41;146613;613;46916;-69
2022/03/06 04:25:20;;;;;;;;;21.25;19.75;;;;;10.30;77.38;100302.25;146616;638;46010;-70
2022/03/06 04:28:13;;;;;;;;;25.00;23.00;;;;;10.31;77.52;100306.59;146615;575;46012;-70
2022/03/06 04:31:05;;;;;;;;;16.75;16.00;;;;;10.31;77.57;100298.81;146616;602;46020;-70
2022/03/06 04:33:57;;;;;;;;;13.50;11.00;;;;;10.29;77.64;100300.47;146613;707;47017;-71
2022/03/06 04:36:49;;;;;;;;;14.75;11.25;;;;;10.27;77.37;100291.72;146623;599;45020;-72
2022/03/06 04:39:41;;;;;;;;;12.25;10.00;;;;;10.26;77.63;100295.13;146619;581;46012;-71
2022/03/06 04:42:33;;;;;;;;;11.00;10.00;;;;;10.23;77.02;100295.84;146616;611;46014;-71
2022/03/06 04:45:26;;;;;;;;;11.50;10.00;;;;;10.21;76.62;100291.41;146617;569;46012;-73
2022/03/06 04:48:18;;;;;;;;;10.50;10.50;;;;;10.17;76.71;100288.69;146620;601;46010;-71
2022/03/06 04:51:10;;;;;;;;;11.00;9.25;;;;;10.21;76.78;100296.59;146614;564;46020;-73
2022/03/06 04:54:02;;;;;;;;;15.50;11.25;;;;;10.22;76.54;100311.31;146621;565;46020;-73
2022/03/06 04:56:54;;;;;;;;;7.25;6.25;;;;;10.19;76.34;100301.72;146617;606;46013;-72
2022/03/06 04:59:46;;;;;;;;;13.75;9.50;;;;;10.15;75.85;100298.09;146623;591;46010;-72
2022/03/06 05:02:38;;;;;;;;;7.25;6.25;;;;;10.15;76.42;100308.44;146620;585;46016;-72
2022/03/06 05:05:31;;;;;;;;;11.75;10.00;;;;;10.12;76.41;100310.00;146623;585;46021;-69
2022/03/06 05:08:26;;;;;;;;;8.25;8.00;;;;;10.11;75.85;100318.59;146618;616;46016;-71
2022/03/06 05:11:18;;;;;;;;;7.50;6.50;;;;;10.06;76.55;100315.81;146623;607;46015;-70
2022/03/06 05:14:10;;;;;;;;;8.00;7.00;;;;;10.03;76.12;100318.28;146618;570;46016;-70
2022/03/06 05:17:02;;;;;;;;;7.75;6.00;;;;;10.02;76.70;100325.94;146625;571;46010;-70
2022/03/06 05:19:54;;;;;;;;;8.50;7.50;;;;;10.01;76.84;100325.06;146620;657;46016;-69
2022/03/06 05:22:46;;;;;;;;;9.00;6.75;;;;;10.02;76.41;100328.53;146623;565;46020;-70
2022/03/06 05:25:38;;;;;;;;;9.75;9.00;;;;;10.01;75.73;100335.44;146618;634;46017;-69
2022/03/06 05:28:30;;;;;;;;;10.00;8.00;;;;;9.99;75.78;100321.50;146623;576;46021;-69
2022/03/06 05:31:22;;;;;;;;;7.00;7.00;;;;;10.00;76.89;100333.66;146621;615;46012;-69
2022/03/06 05:34:14;;;;;;;;;10.00;7.00;;;;;9.93;78.14;100331.56;146624;599;46014;-69
2022/03/06 05:37:07;;;;;;;;;7.00;7.00;;;;;9.84;77.19;100338.91;146619;628;46016;-69
2022/03/06 05:39:59;;;;;;;;;11.75;9.00;;;;;9.79;77.42;100332.63;146622;625;46020;-70
2022/03/06 05:42:51;;;;;;;;;13.75;12.75;;;;;9.76;78.52;100337.66;146616;629;46016;-69
2022/03/06 05:45:45;;;;;;;;;17.50;15.25;;;;;9.71;77.84;100337.44;146616;570;46020;-69
2022/03/06 05:48:36;;;;;;;;;15.50;12.00;;;;;9.70;77.50;100348.63;146615;605;46016;-68
2022/03/06 05:51:28;;;;;;;;;8.75;8.25;;;;;9.73;77.67;100358.25;146617;586;46010;-69
2022/03/06 05:54:20;;;;;;;;;9.25;7.50;;;;;9.78;77.61;100368.00;146620;563;46012;-68
2022/03/06 05:57:12;;;;;;;;;14.00;12.00;;;;;9.83;77.53;100363.03;146623;564;46010;-70
2022/03/06 06:00:08;;;;;;;;;20.75;20.00;;;;;9.89;77.59;100355.56;146613;597;46012;-71
2022/03/06 06:03:00;;;;;;;;;24.00;24.00;;;;;9.93;77.66;100360.06;146617;581;46021;-71
2022/03/06 06:05:52;;;;;;;;;15.00;11.50;;;;;9.96;77.24;100367.97;146614;646;46012;-72
2022/03/06 06:08:45;;;;;;;;;10.50;8.25;;;;;9.98;77.70;100375.84;146620;592;46020;-71
2022/03/06 06:11:37;;;;;;;;;9.75;8.25;;;;;9.99;77.32;100378.50;146621;644;46012;-73
2022/03/06 06:14:29;;;;;;;;;20.25;17.00;;;;;10.02;77.73;100377.75;146623;630;47014;-69
2022/03/06 06:17:22;;;;;;;;;21.75;18.25;;;;;10.08;77.95;100384.12;146613;594;46034;-69
2022/03/06 06:20:14;;;;;;;;;21.75;16.50;;;;;10.10;77.49;100377.31;146615;682;46020;-69
2022/03/06 06:23:09;;;;;;;;;19.00;16.75;;;;;10.12;77.58;100390.31;146618;565;45578;-68
2022/03/06 06:26:02;;;;;;;;;23.75;20.75;;;;;10.16;77.36;100394.84;146620;611;45021;-69
2022/03/06 06:28:56;;;;;;;;;22.25;20.75;;;;;10.19;77.85;100407.97;146612;625;46916;-69
2022/03/06 06:31:48;;;;;;;;;41.25;32.25;;;;;10.21;77.55;100402.84;146614;727;46020;-69
2022/03/06 06:34:40;;;;;;;;;26.50;24.25;;;;;10.22;77.24;100408.09;146611;566;47014;-69
2022/03/06 06:37:32;;;;;;;;;18.75;16.25;;;;;10.26;77.14;100401.34;146613;618;45916;-69
2022/03/06 06:40:25;;;;;;;;;20.75;19.50;;;;;10.29;77.22;100399.81;146615;592;46016;-68
2022/03/06 06:43:17;;;;;;;;;40.25;32.00;;;;;10.30;77.13;100398.12;146615;608;46010;-69
2022/03/06 06:46:09;;;;;;;;;30.50;28.25;;;;;10.31;76.85;100400.81;146614;673;46012;-69
2022/03/06 06:49:00;;;;;;;;;31.75;27.75;;;;;10.33;77.18;100403.44;146616;571;46010;-71
2022/03/06 06:51:53;;;;;;;;;24.25;22.00;;;;;10.30;78.03;100403.31;146613;582;46016;-72
2022/03/06 06:54:45;;;;;;;;;29.75;24.50;;;;;10.23;78.65;100409.00;146613;597;46015;-71
2022/03/06 06:57:38;;;;;;;;;42.00;34.75;;;;;10.18;77.68;100417.41;146612;575;46014;-70
2022/03/06 07:00:30;;;;;;;;;34.00;31.00;;;;;10.16;78.65;100428.53;146616;628;46024;-69
2022/03/06 07:03:22;;;;;;;;;36.00;30.50;;;;;10.14;78.14;100438.81;146613;570;46034;-69
2022/03/06 07:06:13;;;;;;;;;29.00;26.25;;;;;10.14;77.85;100433.63;146616;646;46020;-68
2022/03/06 07:09:06;;;;;;;;;33.00;30.00;;;;;10.17;77.73;100441.56;146612;646;46916;-69
2022/03/06 07:11:58;;;;;;;;;25.75;24.50;;;;;10.17;78.10;100430.31;146617;648;46010;-69
2022/03/06 07:14:50;;;;;;;;;15.00;13.25;;;;;10.17;78.13;100444.16;146608;565;47916;-69
2022/03/06 07:17:42;;;;;;;;;28.75;26.25;;;;;10.17;76.89;100445.84;146617;617;46011;-71
2022/03/06 07:20:36;;;;;;;;;26.75;25.75;;;;;10.16;76.90;100444.97;146615;614;45022;-70
2022/03/06 07:23:27;;;;;;;;;14.75;12.50;;;;;10.16;77.58;100442.38;146613;573;46020;-69
2022/03/06 07:26:20;;;;;;;;;15.00;14.25;;;;;10.17;76.46;100446.72;146615;570;46016;-69
2022/03/06 07:29:12;;;;;;;;;15.75;15.75;;;;;10.20;76.63;100450.31;146616;607;45020;-69
2022/03/06 07:32:04;;;;;;;;;7.00;6.75;;;;;10.22;76.77;100446.97;146616;586;46012;-70
2022/03/06 07:34:56;;;;;;;;;10.75;10.00;;;;;10.24;76.80;100444.44;146623;601;46010;-70
2022/03/06 07:37:48;;;;;;;;;14.50;11.75;;;;;10.23;77.57;100435.78;146613;599;46016;-71
2022/03/06 07:40:41;;;;;;;;;17.00;14.75;;;;;10.25;77.05;100438.44;146617;669;45021;-69
2022/03/06 07:43:33;;;;;;;;;12.75;12.00;;;;;10.34;76.95;100432.03;146615;599;46016;-70
2022/03/06 07:46:25;;;;;;;;;16.25;11.00;;;;;10.49;77.21;100430.97;146615;632;46010;-72
2022/03/06 07:49:17;;;;;;;;;13.50;11.25;;;;;10.61;77.45;100429.84;146614;577;47012;-70
2022/03/06 07:52:09;;;;;;;;;14.50;11.75;;;;;10.76;77.07;100426.19;146618;702;46020;-70
2022/03/06 07:55:02;;;;;;;;;11.00;9.75;;;;;10.92;77.03;100419.97;146615;570;46917;-70
2022/03/06 07:57:54;;;;;;;;;16.75;14.50;;;;;11.17;76.85;100422.84;146623;625;46010;-71
2022/03/06 08:00:46;;;;;;;;;18.25;17.50;;;;;11.49;76.00;100424.22;146612;569;46016;-70
2022/03/06 08:03:38;;;;;;;;;12.50;12.00;;;;;11.86;75.46;100419.72;146617;565;46021;-70
2022/03/06 08:06:30;;;;;;;;;18.50;16.25;;;;;12.29;73.86;100416.25;146613;577;46016;-71
2022/03/06 08:09:26;;;;;;;;;16.75;15.00;;;;;12.71;73.05;100419.63;146614;630;46010;-70
2022/03/06 08:12:18;;;;;;;;;19.25;17.00;;;;;13.09;70.94;100418.41;146615;569;46012;-70
2022/03/06 08:15:11;;;;;;;;;16.50;14.50;;;;;13.44;71.37;100417.94;146615;589;46020;-70
2022/03/06 08:18:03;;;;;;;;;12.00;11.75;;;;;13.79;69.10;100422.59;146611;707;46017;-70
2022/03/06 08:20:55;;;;;;;;;17.00;17.00;;;;;14.09;69.21;100427.94;146621;707;46010;-70
2022/03/06 08:23:49;;;;;;;;;13.75;10.75;;;;;14.32;67.14;100420.84;146616;583;46012;-70
2022/03/06 08:26:41;;;;;;;;;12.50;11.00;;;;;14.53;66.85;100420.66;146615;574;46010;-70
2022/03/06 08:29:34;;;;;;;;;7.50;7.50;;;;;14.75;65.57;100411.75;146615;614;47012;-70
2022/03/06 08:32:26;;;;;;;;;6.75;6.50;;;;;15.07;63.31;100413.50;146622;576;46011;-72
2022/03/06 08:35:18;;;;;;;;;8.00;8.00;;;;;15.23;61.04;100414.00;146617;609;46016;-72
2022/03/06 08:38:10;;;;;;;;;7.75;7.50;;;;;15.28;61.56;100413.22;146623;576;45020;-72
2022/03/06 08:41:02;;;;;;;;;7.50;7.25;;;;;15.16;60.00;100418.97;146619;621;46917;-69
2022/03/06 08:43:54;;;;;;;;;17.75;15.00;;;;;14.87;62.19;100413.81;146615;605;46020;-71
2022/03/06 08:46:46;;;;;;;;;23.00;21.00;;;;;14.47;66.23;100423.03;146613;640;46016;-68
2022/03/06 08:49:38;;;;;;;;;19.00;18.25;;;;;14.22;67.05;100421.41;146615;565;46020;-71
2022/03/06 08:52:30;;;;;;;;;15.50;14.75;;;;;14.03;67.56;100432.97;146610;577;46916;-69
2022/03/06 08:55:22;;;;;;;;;19.00;17.25;;;;;13.94;66.99;100443.09;146614;564;46021;-70
2022/03/06 08:58:15;;;;;;;;;22.50;18.50;;;;;13.85;69.01;100451.47;146617;575;46012;-69
2022/03/06 09:01:07;;;;;;;;;17.75;16.25;;;;;13.78;69.20;100459.94;146613;611;46020;-70
2022/03/06 09:03:59;;;;;;;;;22.25;19.75;;;;;13.66;67.42;100463.84;146615;663;46012;-68
2022/03/06 09:06:51;;;;;;;;;17.50;17.25;;;;;13.51;67.94;100461.59;146615;721;46020;-69
2022/03/06 09:09:43;;;;;;;;;14.75;12.75;;;;;13.32;68.85;100466.12;146614;573;46017;-69
2022/03/06 09:12:35;;;;;;;;;17.75;14.75;;;;;13.17;68.97;100473.34;146614;611;46020;-68
2022/03/06 09:15:27;;;;;;;;;20.00;16.00;;;;;13.05;69.14;100476.41;146617;571;46015;-70
2022/03/06 09:18:20;;;;;;;;;22.75;21.75;;;;;12.99;69.47;100468.38;146615;601;46021;-67
2022/03/06 09:21:12;;;;;;;;;17.75;14.50;;;;;13.02;70.06;100470.19;146611;620;46027;-63
2022/03/06 09:24:04;;;;;;;;;47.00;37.75;;;;;13.05;70.54;100471.22;146614;606;46011;-70
2022/03/06 09:26:56;;;;;;;;;22.50;22.00;;;;;13.07;70.37;100473.84;146613;569;46016;-71
2022/03/06 09:29:48;;;;;;;;;21.50;19.75;;;;;13.00;70.62;100480.56;146612;600;46010;-72
2022/03/06 09:32:41;;;;;;;;;24.25;20.00;;;;;12.98;70.40;100487.41;146611;581;46012;-69
2022/03/06 09:35:33;;;;;;;;;22.00;20.50;;;;;13.11;71.68;100486.16;146615;612;46020;-69
2022/03/06 09:38:25;;;;;;;;;22.25;18.75;;;;;13.37;69.97;100484.53;146613;588;46014;-68
2022/03/06 09:41:21;;;;;;;;;26.00;22.75;;;;;13.67;69.73;100482.13;146613;642;46020;-68
2022/03/06 09:44:16;;;;;;;;;16.50;15.75;;;;;13.92;68.44;100480.34;146612;613;46916;-68
2022/03/06 09:47:10;;;;;;;;;14.00;11.00;;;;;14.15;65.61;100476.81;146614;567;46010;-67
2022/03/06 09:50:03;;;;;;;;;13.75;11.50;;;;;14.37;64.31;100478.38;146613;633;46016;-68
2022/03/06 09:52:56;;;;;;;;;15.25;14.25;;;;;14.32;64.04;100485.16;146614;590;47010;-68
2022/03/06 09:55:48;;;;;;;;;19.25;17.75;;;;;14.23;66.21;100482.25;146613;591;46014;-68
2022/03/06 09:58:40;;;;;;;;;15.75;15.50;;;;;13.97;66.54;100443.19;146608;655;46020;-68
2022/03/06 10:01:32;;;;;;;;;15.25;14.00;;;;;14.19;64.45;100481.28;146611;615;46024;-69
2022/03/06 10:04:35;;;;;;;;;8.75;8.50;;;;;14.15;64.16;100468.97;146614;579;46020;-68
2022/03/06 10:07:27;;;;;;;;;18.25;15.00;;;;;14.23;65.67;100456.19;146617;614;46016;-69
2022/03/06 10:10:41;;;;;;;;;14.00;13.00;;;;;14.35;66.09;100447.88;146617;578;46010;-69
2022/03/06 10:13:39;;;;;;;;;17.00;15.50;;;;;14.46;64.76;100452.59;146615;587;45016;-68
2022/03/06 10:16:31;;;;;;;;;15.00;13.00;;;;;14.55;64.95;100449.41;146615;610;46021;-69
2022/03/06 10:19:23;;;;;;;;;14.75;13.50;;;;;14.61;63.15;100451.31;146613;590;46016;-69
2022/03/06 10:22:15;;;;;;;;;23.00;19.00;;;;;14.72;63.18;100457.75;146615;569;46010;-68
2022/03/06 10:25:19;;;;;;;;;20.25;18.00;;;;;14.82;64.11;100461.50;146612;588;46014;-69
2022/03/06 10:28:11;;;;;;;;;19.25;16.00;;;;;14.82;63.09;100451.94;146613;593;46010;-69
2022/03/06 10:31:09;;;;;;;;;24.00;23.00;;;;;14.87;64.86;100454.72;146615;564;45017;-68
2022/03/06 10:34:10;;;;;;;;;20.25;18.75;;;;;14.94;64.27;100454.03;146613;566;47010;-68
2022/03/06 10:37:02;;;;;;;;;29.00;25.00;;;;;15.02;65.15;100448.22;146611;587;46016;-68
2022/03/06 10:39:54;;;;;;;;;15.25;14.25;;;;;15.13;62.03;100450.22;146614;606;46010;-69
2022/03/06 10:42:46;;;;;;;;;17.50;16.25;;;;;15.15;62.59;100452.06;146614;582;46012;-69
2022/03/06 10:45:38;;;;;;;;;15.25;14.00;;;;;15.11;62.09;100451.91;146614;570;46021;-69
2022/03/06 10:48:30;;;;;;;;;12.50;11.50;;;;;15.18;62.42;100456.50;146611;588;46016;-69
2022/03/06 10:51:22;;;;;;;;;13.75;11.75;;;;;15.40;61.55;100456.22;146615;569;46020;-71
2022/03/06 10:54:16;;;;;;;;;13.00;12.75;;;;;15.77;62.02;100459.88;146617;668;46019;-68
2022/03/06 10:57:14;;;;;;;;;9.25;8.75;;;;;16.14;59.27;100458.19;146614;578;46014;-68
2022/03/06 11:00:07;;;;;;;;;9.75;8.00;;;;;16.43;58.91;100457.97;146618;664;46016;-69
2022/03/06 11:03:01;;;;;;;;;9.75;8.25;;;;;16.70;56.74;100456.00;146622;610;46014;-68
2022/03/06 11:05:54;;;;;;;;;9.50;8.25;;;;;16.91;55.54;100458.19;146619;686;46916;-70
2022/03/06 11:08:48;;;;;;;;;8.75;8.25;;;;;17.06;54.90;100458.53;146622;683;46021;-69
2022/03/06 11:11:41;;;;;;;;;6.00;5.25;;;;;17.07;53.41;100454.16;146619;581;46012;-69
2022/03/06 11:14:35;;;;;;;;;7.00;7.00;;;;;17.13;53.88;100448.16;146621;682;46020;-70
2022/03/06 11:17:30;;;;;;;;;5.75;5.75;;;;;17.36;56.30;100443.41;146621;656;46014;-70
2022/03/06 11:20:23;;;;;;;;;5.00;4.50;;;;;17.78;56.00;100435.44;146625;591;46010;-69
2022/03/06 11:23:53;;;;;;;;;5.25;5.25;;;;;18.10;53.14;100435.09;146620;642;46025;-69
2022/03/06 11:27:22;;;;;;;;;7.75;6.75;;;;;18.13;54.61;100422.03;146621;633;46020;-68
2022/03/06 11:30:21;;;;;;;;;9.50;9.50;;;;;18.23;54.41;100416.09;146619;603;46017;-69
2022/03/06 11:33:14;;;;;;;;;4.25;3.50;;;;;18.26;52.87;100412.63;146619;595;46036;-69
2022/03/06 11:36:31;;;;;;;;;5.25;5.25;;;;;17.93;54.61;100362.25;146620;697;46013;-67
2022/03/06 11:39:56;;;;;;;;;3.50;3.50;;;;;18.00;55.17;100379.84;146623;603;46008;-69
2022/03/06 11:43:09;;;;;;;;;9.50;7.75;;;;;18.01;52.67;100407.00;146618;645;46014;-67
2022/03/06 11:46:35;;;;;;;;;8.25;7.50;;;;;17.78;54.37;100401.34;146624;595;46014;-69
2022/03/06 11:49:36;;;;;;;;;8.50;7.75;;;;;17.60;54.07;100408.88;146618;582;46012;-69
2022/03/06 11:52:34;;;;;;;;;7.00;6.00;;;;;17.53;53.54;100406.13;146623;585;46011;-69
2022/03/06 11:55:37;;;;;;;;;7.00;7.00;;;;;17.43;54.44;100412.06;146620;622;46016;-69
2022/03/06 11:58:58;;;;;;;;;6.33;6.33;;;;;17.17;56.38;100361.81;146624;657;46010;-69
2022/03/06 12:01:52;;;;;;;;;5.50;5.00;;;;;17.41;53.67;100403.28;146617;563;47918;-69
2022/03/06 12:04:47;;;;;;;;;4.25;3.75;;;;;17.36;52.70;100399.72;146624;649;45020;-70
2022/03/06 12:07:44;;;;;;;;;5.75;4.25;;;;;17.23;53.74;100364.56;146622;594;46012;-69
2022/03/06 12:10:37;;;;;;;;;4.00;3.33;;;;;17.59;54.22;100404.50;146624;604;46020;-69
2022/03/06 12:13:30;;;;;;;;;10.50;7.25;;;;;17.67;53.07;100401.16;146622;601;45017;-69
2022/03/06 12:16:22;;;;;;;;;7.00;5.50;;;;;17.79;54.34;100397.91;146624;632;46020;-69
2022/03/06 12:19:14;;;;;;;;;9.00;8.33;;;;;17.90;54.43;100401.56;146620;615;46014;-69
2022/03/06 12:22:19;;;;;;;;;6.33;6.33;;;;;17.81;53.78;100395.28;146623;579;46020;-68
2022/03/06 12:25:31;;;;;;;;;7.75;6.75;;;;;17.49;54.48;100404.34;146620;591;46012;-68
2022/03/06 12:28:25;;;;;;;;;6.50;5.00;;;;;17.05;55.51;100403.50;146622;682;46020;-68
2022/03/06 12:31:36;;;;;;;;;7.50;7.00;;;;;16.65;57.03;100409.63;146619;570;45025;-68
2022/03/06 12:34:41;;;;;;;;;7.25;6.75;;;;;16.38;54.90;100413.37;146624;645;46020;-68
2022/03/06 12:37:55;;;;;;;;;13.00;11.00;;;;;16.12;54.52;100395.34;146618;677;46017;-69
2022/03/06 12:40:47;;;;;;;;;4.33;4.33;;;;;16.04;56.00;100404.72;146622;635;46022;-69
2022/03/06 12:43:48;;;;;;;;;13.75;12.75;;;;;16.09;58.69;100410.97;146620;580;46012;-68
2022/03/06 12:46:40;;;;;;;;;13.75;11.50;;;;;16.14;57.41;100414.59;146623;599;46020;-68
2022/03/06 12:49:32;;;;;;;;;5.50;5.00;;;;;16.07;55.46;100423.13;146619;597;46016;-68
2022/03/06 12:52:26;;;;;;;;;4.25;3.75;;;;;15.75;53.20;100424.06;146624;743;46020;-68
2022/03/06 12:55:22;;;;;;;;;6.00;4.25;;;;;15.61;56.41;100426.31;146621;565;46012;-68
2022/03/06 12:58:14;;;;;;;;;9.00;6.00;;;;;15.58;57.23;100432.34;146621;614;46020;-68
2022/03/06 13:01:11;;;;;;;;;5.25;5.25;;;;;15.67;58.20;100437.84;146621;565;46016;-68
2022/03/06 13:04:03;;;;;;;;;26.25;23.75;;;;;15.83;56.09;100433.00;146623;611;45048;-69
2022/03/06 13:06:56;;;;;;;;;14.50;14.50;;;;;16.04;55.70;100438.72;146619;698;46016;-68
2022/03/06 13:09:48;;;;;;;;;2.00;2.00;;;;;16.27;54.88;100428.84;146623;602;46020;-68
2022/03/06 13:12:42;;;;;;;;;9.25;7.25;;;;;16.40;56.54;100437.84;146621;583;46013;-69
2022/03/06 13:15:36;;;;;;;;;7.75;7.75;;;;;16.49;54.71;100442.41;146624;610;46010;-68
2022/03/06 13:18:40;;;;;;;;;10.50;9.50;;;;;16.73;55.54;100442.97;146619;580;46012;-68
2022/03/06 13:21:33;;;;;;;;;4.75;4.75;;;;;17.05;52.49;100435.81;146624;566;45021;-68
2022/03/06 13:24:25;;;;;;;;;9.00;8.00;;;;;17.29;52.00;100437.16;146621;582;46016;-69